createdAt,value
2023-05-14T00:01:10.281Z,70.10
2023-05-14T00:03:41.510Z,70.26
2023-05-14T00:06:09.191Z,70.20
2023-05-14T00:08:36.313Z,70.11
2023-05-14T00:11:03.090Z,70.10
2023-05-14T00:13:29.943Z,69.91
2023-05-14T00:15:56.909Z,70.03
2023-05-14T00:18:23.807Z,69.73
2023-05-14T00:20:54.922Z,69.67
2023-05-14T00:23:22.769Z,69.85
2023-05-14T00:25:50.240Z,69.69
2023-05-14T00:28:17.085Z,70.10
2023-05-14T00:30:44.805Z,70.10
2023-05-14T00:33:11.636Z,70.19
2023-05-14T00:35:38.757Z,70.26
2023-05-14T00:38:06.023Z,70.31
2023-05-14T00:40:33.049Z,70.29
2023-05-14T00:43:00.060Z,70.30
2023-05-14T00:45:26.973Z,70.16
2023-05-14T00:47:54.314Z,70.54
2023-05-14T00:50:21.433Z,70.93
2023-05-14T00:52:48.433Z,70.96
2023-05-14T00:55:16.759Z,71.02
2023-05-14T00:57:43.631Z,71.82
2023-05-14T01:00:11.076Z,71.63
2023-05-14T01:02:38.297Z,71.68
2023-05-14T01:05:05.362Z,71.83
2023-05-14T01:08:01.317Z,71.56
2023-05-14T01:10:48.279Z,71.22
2023-05-14T01:13:38.251Z,71.56
2023-05-14T01:16:05.542Z,71.23
2023-05-14T01:18:32.829Z,71.01
2023-05-14T01:20:59.821Z,70.91
2023-05-14T01:23:26.774Z,70.66
2023-05-14T01:25:53.735Z,70.24
2023-05-14T01:28:24.337Z,69.90
2023-05-14T01:30:59.147Z,69.86
2023-05-14T01:33:27.794Z,69.84
2023-05-14T01:35:54.895Z,69.52
2023-05-14T01:38:21.992Z,69.64
2023-05-14T01:40:49.123Z,69.63
2023-05-14T01:43:16.718Z,69.47
2023-05-14T01:45:44.253Z,69.28
2023-05-14T01:48:11.452Z,69.28
2023-05-14T01:50:38.728Z,69.21
2023-05-14T01:53:05.848Z,68.99
2023-05-14T01:55:32.852Z,68.81
2023-05-14T01:57:59.936Z,68.18
2023-05-14T02:00:27.063Z,68.05
2023-05-14T02:02:54.256Z,67.70
2023-05-14T02:05:21.938Z,68.35
2023-05-14T02:07:49.149Z,68.52
2023-05-14T02:10:16.091Z,68.43
2023-05-14T02:12:43.177Z,68.67
2023-05-14T02:15:11.486Z,68.56
2023-05-14T02:17:38.706Z,68.54
2023-05-14T02:20:06.642Z,68.47
2023-05-14T02:22:33.801Z,68.49
2023-05-14T02:25:01.342Z,68.90
2023-05-14T02:27:28.363Z,68.98
2023-05-14T02:29:56.911Z,69.05
2023-05-14T02:32:23.886Z,68.98
2023-05-14T02:34:51.084Z,68.78
2023-05-14T02:37:18.276Z,68.77
2023-05-14T02:39:45.077Z,68.61
2023-05-14T02:42:12.063Z,68.49
2023-05-14T02:44:39.129Z,68.35
2023-05-14T02:47:06.516Z,68.39
2023-05-14T02:49:33.751Z,68.71
2023-05-14T02:52:01.506Z,68.79
2023-05-14T02:54:28.659Z,68.64
2023-05-14T02:56:55.701Z,68.62
2023-05-14T02:59:24.493Z,68.36
2023-05-14T03:01:51.662Z,68.11
2023-05-14T03:04:19.286Z,68.16
2023-05-14T03:06:46.416Z,68.81
2023-05-14T03:09:13.480Z,68.54
2023-05-14T03:11:40.368Z,68.53
2023-05-14T03:14:07.570Z,68.72
2023-05-14T03:16:34.589Z,68.63
2023-05-14T03:19:01.643Z,68.81
2023-05-14T03:21:28.562Z,68.78
2023-05-14T03:23:55.582Z,68.77
2023-05-14T03:26:22.581Z,68.78
2023-05-14T03:28:50.739Z,68.80
2023-05-14T03:31:17.763Z,68.74
2023-05-14T03:33:44.921Z,68.36
2023-05-14T03:36:11.969Z,67.94
2023-05-14T03:38:38.796Z,68.46
2023-05-14T03:41:05.806Z,68.06
2023-05-14T03:43:32.728Z,68.63
2023-05-14T03:46:00.412Z,68.21
2023-05-14T03:48:27.292Z,68.89
2023-05-14T03:50:54.424Z,69.34
2023-05-14T03:53:21.493Z,69.70
2023-05-14T03:55:48.415Z,69.77
2023-05-14T03:58:15.449Z,69.75
2023-05-14T04:00:43.109Z,69.91
2023-05-14T04:03:10.393Z,69.60
2023-05-14T04:05:37.299Z,69.55
2023-05-14T04:08:04.038Z,69.53
2023-05-14T04:10:32.321Z,69.25
2023-05-14T04:12:59.228Z,69.10
2023-05-14T04:15:26.025Z,69.04
2023-05-14T04:17:52.848Z,68.89
2023-05-14T04:20:19.692Z,68.88
2023-05-14T04:22:46.640Z,68.36
2023-05-14T04:25:13.565Z,68.23
2023-05-14T04:27:40.535Z,68.26
2023-05-14T04:30:08.757Z,68.24
2023-05-14T04:32:35.684Z,68.15
2023-05-14T04:35:04.544Z,68.06
2023-05-14T04:37:31.916Z,68.11
2023-05-14T04:39:58.728Z,68.13
2023-05-14T04:42:25.800Z,68.51
2023-05-14T04:44:52.892Z,68.40
2023-05-14T04:47:21.473Z,67.87
2023-05-14T04:49:48.697Z,67.65
2023-05-14T04:52:15.489Z,67.83
2023-05-14T04:54:42.311Z,67.87
2023-05-14T04:57:09.348Z,67.65
2023-05-14T04:59:36.697Z,67.47
2023-05-14T05:02:03.655Z,67.19
2023-05-14T05:04:30.748Z,66.66
2023-05-14T05:06:57.630Z,65.86
2023-05-14T05:09:24.501Z,65.23
2023-05-14T05:11:51.605Z,64.85
2023-05-14T05:14:18.426Z,64.48
2023-05-14T05:16:45.331Z,64.06
2023-05-14T05:19:12.388Z,63.47
2023-05-14T05:21:41.239Z,63.17
2023-05-14T05:24:08.605Z,62.59
2023-05-14T05:26:38.357Z,62.45
2023-05-14T05:29:05.506Z,62.94
2023-05-14T05:31:32.670Z,63.09
2023-05-14T05:33:59.979Z,62.67
2023-05-14T05:36:26.848Z,62.25
2023-05-14T05:38:53.883Z,62.47
2023-05-14T05:41:20.671Z,62.27
2023-05-14T05:43:47.603Z,61.33
2023-05-14T05:46:14.423Z,60.94
2023-05-14T05:48:41.421Z,60.46
2023-05-14T05:51:08.241Z,59.88
2023-05-14T05:53:35.057Z,59.27
2023-05-14T05:56:02.049Z,58.06
2023-05-14T05:58:29.156Z,57.23
2023-05-14T06:00:58.062Z,56.87
2023-05-14T06:03:25.187Z,56.87
2023-05-14T06:05:53.040Z,56.35
2023-05-14T06:08:19.926Z,55.95
2023-05-14T06:10:47.712Z,55.58
2023-05-14T06:13:14.653Z,54.71
2023-05-14T06:15:41.617Z,53.99
2023-05-14T06:18:08.646Z,53.66
2023-05-14T06:20:35.573Z,53.19
2023-05-14T06:23:02.872Z,52.19
2023-05-14T06:25:29.773Z,52.23
2023-05-14T06:27:56.767Z,50.99
2023-05-14T06:30:23.776Z,50.91
2023-05-14T06:32:52.110Z,50.10
2023-05-14T06:35:19.339Z,48.71
2023-05-14T06:37:46.332Z,48.02
2023-05-14T06:40:16.038Z,47.79
2023-05-14T06:42:42.898Z,46.52
2023-05-14T06:45:10.052Z,45.80
2023-05-14T06:47:37.147Z,44.60
2023-05-14T06:50:04.304Z,44.39
2023-05-14T06:52:31.158Z,43.76
2023-05-14T06:54:58.014Z,42.77
2023-05-14T06:57:25.028Z,42.19
2023-05-14T06:59:52.302Z,41.06
2023-05-14T07:02:19.201Z,40.04
2023-05-14T07:04:46.867Z,39.64
2023-05-14T07:07:15.591Z,38.60
2023-05-14T07:09:42.462Z,36.92
2023-05-14T07:12:09.457Z,36.26
2023-05-14T07:14:36.455Z,35.79
2023-05-14T07:17:03.561Z,36.39
2023-05-14T07:19:30.508Z,37.10
2023-05-14T07:21:58.152Z,37.43
2023-05-14T07:24:25.158Z,38.23
2023-05-14T07:26:52.154Z,38.85
2023-05-14T07:29:19.062Z,39.60
2023-05-14T07:31:46.064Z,40.14
2023-05-14T07:34:13.091Z,40.81
2023-05-14T07:36:40.037Z,41.32
2023-05-14T07:39:07.111Z,41.34
2023-05-14T07:41:34.003Z,41.28
2023-05-14T07:44:00.943Z,41.25
2023-05-14T07:46:27.748Z,41.10
2023-05-14T07:48:54.735Z,40.01
2023-05-14T07:51:21.602Z,38.05
2023-05-14T07:53:48.684Z,34.78
2023-05-14T07:56:15.626Z,32.72
2023-05-14T07:58:42.547Z,32.22
2023-05-14T08:01:09.509Z,33.65
2023-05-14T08:03:36.742Z,33.85
2023-05-14T08:06:04.609Z,35.14
2023-05-14T08:08:31.677Z,35.88
2023-05-14T08:10:58.621Z,32.85
2023-05-14T08:13:25.575Z,32.05
2023-05-14T08:15:52.938Z,32.35
2023-05-14T08:18:19.807Z,34.46
2023-05-14T08:20:47.162Z,34.88
2023-05-14T08:23:14.174Z,36.75
2023-05-14T08:25:41.285Z,36.87
2023-05-14T08:28:08.306Z,38.27
2023-05-14T08:30:35.279Z,38.77
2023-05-14T08:33:02.129Z,38.64
2023-05-14T08:35:28.996Z,38.25
2023-05-14T08:37:57.385Z,37.75
2023-05-14T08:40:24.387Z,37.45
2023-05-14T08:42:51.754Z,36.13
2023-05-14T08:45:20.527Z,36.26
2023-05-14T08:47:51.052Z,34.41
2023-05-14T08:50:22.772Z,32.69
2023-05-14T08:52:50.654Z,32.72
2023-05-14T08:55:17.630Z,33.22
2023-05-14T08:57:44.672Z,33.63
2023-05-14T09:00:12.175Z,32.90
2023-05-14T09:02:42.629Z,33.41
2023-05-14T09:05:09.938Z,32.97
2023-05-14T09:07:36.943Z,32.39
2023-05-14T09:10:04.221Z,31.77
2023-05-14T09:12:31.581Z,29.02
2023-05-14T09:14:58.462Z,26.01
2023-05-14T09:17:26.698Z,23.01
2023-05-14T09:19:53.831Z,23.77
2023-05-14T09:22:21.082Z,25.69
2023-05-14T09:25:05.254Z,25.42
2023-05-14T09:27:33.008Z,25.77
2023-05-14T09:30:11.253Z,25.12
2023-05-14T09:32:44.367Z,26.56
2023-05-14T09:35:18.065Z,27.24
2023-05-14T09:37:46.659Z,27.46
2023-05-14T09:40:14.691Z,27.69
2023-05-14T09:42:41.799Z,26.92
2023-05-14T09:45:09.727Z,26.70
2023-05-14T09:47:37.606Z,26.33
2023-05-14T09:50:05.455Z,26.79
2023-05-14T09:52:32.301Z,27.35
2023-05-14T09:54:59.261Z,27.82
2023-05-14T09:57:27.096Z,27.45
2023-05-14T09:59:54.414Z,27.07
2023-05-14T10:02:23.944Z,27.23
2023-05-14T10:04:52.655Z,24.57
2023-05-14T10:07:24.095Z,24.72
2023-05-14T10:09:53.959Z,25.22
2023-05-14T10:12:22.673Z,26.62
2023-05-14T10:14:53.412Z,28.07
2023-05-14T10:17:22.045Z,29.54
2023-05-14T10:19:54.438Z,31.04
2023-05-14T10:22:24.228Z,32.63
2023-05-14T10:24:54.385Z,34.00
2023-05-14T10:27:21.797Z,35.34
2023-05-14T10:29:55.944Z,35.93
2023-05-14T10:32:26.689Z,36.41
2023-05-14T10:34:54.080Z,36.86
2023-05-14T10:37:21.776Z,36.25
2023-05-14T10:39:51.622Z,36.56
2023-05-14T10:42:20.290Z,36.60
2023-05-14T10:44:51.237Z,37.93
2023-05-14T10:47:18.494Z,37.22
2023-05-14T10:49:49.333Z,36.64
2023-05-14T10:52:18.881Z,37.51
2023-05-14T10:55:01.876Z,37.16
2023-05-14T10:57:31.918Z,36.03
2023-05-14T11:00:00.414Z,34.79
2023-05-14T11:02:37.716Z,34.11
2023-05-14T11:05:09.560Z,33.66
2023-05-14T11:07:38.334Z,33.09
2023-05-14T11:10:07.004Z,33.34
2023-05-14T11:12:38.248Z,33.39
2023-05-14T11:15:07.903Z,33.01
2023-05-14T11:17:35.675Z,32.86
2023-05-14T11:20:02.581Z,33.96
2023-05-14T11:22:29.697Z,33.77
2023-05-14T11:24:56.648Z,33.49
2023-05-14T11:27:24.209Z,33.67
2023-05-14T11:29:51.122Z,34.21
2023-05-14T11:32:18.861Z,34.85
2023-05-14T11:34:46.234Z,33.76
2023-05-14T11:37:15.220Z,34.57
2023-05-14T11:40:10.274Z,35.42
2023-05-14T11:42:37.423Z,33.86
2023-05-14T11:45:04.999Z,33.94
2023-05-14T11:47:32.253Z,33.95
2023-05-14T11:49:59.857Z,33.67
2023-05-14T11:52:26.714Z,32.27
2023-05-14T11:54:53.439Z,32.62
2023-05-14T11:57:21.157Z,32.03
2023-05-14T11:59:58.874Z,33.43
2023-05-14T12:02:28.497Z,33.74
2023-05-14T12:04:55.511Z,34.05
2023-05-14T12:07:22.620Z,33.78
2023-05-14T12:09:50.801Z,33.70
2023-05-14T12:12:21.808Z,33.18
2023-05-14T12:14:50.743Z,34.79
2023-05-14T12:17:22.193Z,35.46
2023-05-14T12:19:50.937Z,34.13
2023-05-14T12:22:22.628Z,34.21
2023-05-14T12:24:59.324Z,33.77
2023-05-14T12:27:27.802Z,33.20
2023-05-14T12:30:19.946Z,34.06
2023-05-14T12:32:49.115Z,32.96
2023-05-14T12:35:16.229Z,33.58
2023-05-14T12:37:43.250Z,30.62
2023-05-14T12:40:10.416Z,30.80
2023-05-14T12:42:37.710Z,30.27
2023-05-14T12:45:08.163Z,29.04
2023-05-14T12:47:36.523Z,30.24
2023-05-14T12:50:03.565Z,30.32
2023-05-14T12:52:37.603Z,32.15
2023-05-14T12:55:10.213Z,30.68
2023-05-14T12:57:39.621Z,30.62
2023-05-14T13:00:10.836Z,30.29
2023-05-14T13:02:42.222Z,30.23
2023-05-14T13:05:10.812Z,31.03
2023-05-14T13:07:37.746Z,31.26
2023-05-14T13:10:08.490Z,32.32
2023-05-14T13:12:35.616Z,31.54
2023-05-14T13:15:02.556Z,32.70
2023-05-14T13:17:29.521Z,31.49
2023-05-14T13:19:56.517Z,32.24
2023-05-14T13:22:23.505Z,31.74
2023-05-14T13:24:50.729Z,30.61
2023-05-14T13:27:17.621Z,31.45
2023-05-14T13:29:44.531Z,29.87
2023-05-14T13:32:11.411Z,30.56
2023-05-14T13:34:38.356Z,30.43
2023-05-14T13:37:05.329Z,29.78
2023-05-14T13:39:32.188Z,29.87
2023-05-14T13:41:59.219Z,30.46
2023-05-14T13:44:26.097Z,30.56
2023-05-14T13:46:53.086Z,31.09
2023-05-14T13:49:20.066Z,30.51
2023-05-14T13:51:47.024Z,31.38
2023-05-14T13:54:13.991Z,31.33
2023-05-14T13:56:40.892Z,31.53
2023-05-14T13:59:07.922Z,32.44
2023-05-14T14:01:34.979Z,31.41
2023-05-14T14:04:01.914Z,31.75
2023-05-14T14:06:31.303Z,29.88
2023-05-14T14:08:58.309Z,30.09
2023-05-14T14:11:25.074Z,29.65
2023-05-14T14:13:52.052Z,29.77
2023-05-14T14:16:19.189Z,28.80
2023-05-14T14:18:46.297Z,29.66
2023-05-14T14:21:13.219Z,31.57
2023-05-14T14:23:40.240Z,32.08
2023-05-14T14:26:07.669Z,35.31
2023-05-14T14:28:34.855Z,34.79
2023-05-14T14:31:02.615Z,34.67
2023-05-14T14:33:31.467Z,37.34
2023-05-14T14:35:58.466Z,38.77
2023-05-14T14:38:25.360Z,39.39
2023-05-14T14:40:52.699Z,40.11
2023-05-14T14:43:19.567Z,40.92
2023-05-14T14:45:48.883Z,40.84
2023-05-14T14:48:27.174Z,41.58
2023-05-14T14:50:54.821Z,41.68
2023-05-14T14:53:21.889Z,42.69
2023-05-14T14:55:49.456Z,42.96
2023-05-14T14:58:16.406Z,44.91
2023-05-14T15:00:43.590Z,45.10
2023-05-14T15:03:10.702Z,44.34
2023-05-14T15:05:38.218Z,44.79
2023-05-14T15:08:05.503Z,43.95
2023-05-14T15:10:32.645Z,45.08
2023-05-14T15:12:59.700Z,44.63
2023-05-14T15:15:26.568Z,45.09
2023-05-14T15:17:53.598Z,45.83
2023-05-14T15:20:20.551Z,44.62
2023-05-14T15:22:47.469Z,43.23
2023-05-14T15:25:14.393Z,44.11
2023-05-14T15:27:41.229Z,44.73
2023-05-14T15:30:08.618Z,44.03
2023-05-14T15:32:35.611Z,44.98
2023-05-14T15:35:02.739Z,45.15
2023-05-14T15:37:42.776Z,44.21
2023-05-14T15:40:10.656Z,44.92
2023-05-14T15:42:38.878Z,45.37
2023-05-14T15:45:06.109Z,46.30
2023-05-14T15:47:33.038Z,43.97
2023-05-14T15:50:00.251Z,46.67
2023-05-14T15:52:27.105Z,45.62
2023-05-14T15:54:56.027Z,45.57
2023-05-14T15:57:23.283Z,46.17
2023-05-14T15:59:50.363Z,45.99
2023-05-14T16:02:17.332Z,47.53
2023-05-14T16:04:47.046Z,45.42
2023-05-14T16:07:13.996Z,45.10
2023-05-14T16:09:40.908Z,45.82
2023-05-14T16:12:08.120Z,46.84
2023-05-14T16:14:35.378Z,46.56
2023-05-14T16:17:02.264Z,47.62
2023-05-14T16:19:29.228Z,49.47
2023-05-14T16:21:56.226Z,50.42
2023-05-14T16:24:23.005Z,52.34
2023-05-14T16:26:49.824Z,52.75
2023-05-14T16:29:16.793Z,53.41
2023-05-14T16:31:43.855Z,53.51
2023-05-14T16:34:11.024Z,53.58
2023-05-14T16:36:38.088Z,53.53
2023-05-14T16:39:07.708Z,54.63
2023-05-14T16:41:36.202Z,57.18
2023-05-14T16:44:03.680Z,57.96
2023-05-14T16:46:31.403Z,58.83
2023-05-14T16:48:58.363Z,59.58
2023-05-14T16:51:25.309Z,61.05
2023-05-14T16:53:52.451Z,60.39
2023-05-14T16:56:21.781Z,60.04
2023-05-14T16:58:48.826Z,60.16
2023-05-14T17:01:16.056Z,60.30
2023-05-14T17:03:43.704Z,60.70
2023-05-14T17:06:10.739Z,60.79
2023-05-14T17:08:37.652Z,61.34
2023-05-14T17:11:06.105Z,61.70
2023-05-14T17:13:33.471Z,61.39
2023-05-14T17:16:03.520Z,60.89
2023-05-14T17:18:30.961Z,60.44
2023-05-14T17:20:57.737Z,62.03
2023-05-14T17:23:24.664Z,62.00
2023-05-14T17:25:51.579Z,62.27
2023-05-14T17:28:18.518Z,62.21
2023-05-14T17:30:45.391Z,62.56
2023-05-14T17:33:12.389Z,61.83
2023-05-14T17:35:39.406Z,60.89
2023-05-14T17:38:06.377Z,61.25
2023-05-14T17:40:33.937Z,61.92
2023-05-14T17:43:00.969Z,61.12
2023-05-14T17:45:29.508Z,61.18
2023-05-14T17:47:59.476Z,61.02
2023-05-14T17:50:26.395Z,61.60
2023-05-14T17:52:54.401Z,61.07
2023-05-14T17:55:22.554Z,60.90
2023-05-14T17:57:49.966Z,61.85
2023-05-14T18:00:17.139Z,62.46
2023-05-14T18:02:44.069Z,62.81
2023-05-14T18:05:11.017Z,62.74
2023-05-14T18:07:37.846Z,61.83
2023-05-14T18:10:05.130Z,61.06
2023-05-14T18:12:32.038Z,61.01
2023-05-14T18:14:59.000Z,60.55
2023-05-14T18:17:25.906Z,61.20
2023-05-14T18:19:52.734Z,60.28
2023-05-14T18:22:21.980Z,60.30
2023-05-14T18:24:48.795Z,60.52
2023-05-14T18:27:15.810Z,61.38
2023-05-14T18:29:43.678Z,61.58
2023-05-14T18:32:10.563Z,62.06
2023-05-14T18:34:37.601Z,62.52
2023-05-14T18:37:04.616Z,64.21
2023-05-14T18:39:31.477Z,64.57
2023-05-14T18:41:58.383Z,64.69
2023-05-14T18:44:25.159Z,63.43
2023-05-14T18:46:52.688Z,62.81
2023-05-14T18:49:19.701Z,62.91
2023-05-14T18:51:46.572Z,64.68
2023-05-14T18:54:13.573Z,64.01
2023-05-14T18:56:45.511Z,64.07
2023-05-14T18:59:14.677Z,64.31
2023-05-14T19:01:41.670Z,63.17
2023-05-14T19:04:08.702Z,63.14
2023-05-14T19:06:36.489Z,63.86
2023-05-14T19:09:04.675Z,64.11
2023-05-14T19:11:31.492Z,64.62
2023-05-14T19:13:58.314Z,64.64
2023-05-14T19:16:26.498Z,64.64
2023-05-14T19:18:53.647Z,65.48
2023-05-14T19:21:20.581Z,65.03
2023-05-14T19:23:47.755Z,66.37
2023-05-14T19:26:14.557Z,65.60
2023-05-14T19:28:42.174Z,64.36
2023-05-14T19:31:08.994Z,64.30
2023-05-14T19:33:35.856Z,65.06
2023-05-14T19:36:02.682Z,64.89
2023-05-14T19:38:29.885Z,65.38
2023-05-14T19:40:57.310Z,65.93
2023-05-14T19:43:25.719Z,65.41
2023-05-14T19:45:52.769Z,65.74
2023-05-14T19:48:19.824Z,66.40
2023-05-14T19:50:47.551Z,67.14
2023-05-14T19:53:14.687Z,67.49
2023-05-14T19:55:41.925Z,68.49
2023-05-14T19:58:09.044Z,69.33
2023-05-14T20:00:37.219Z,69.70
2023-05-14T20:03:05.841Z,68.98
2023-05-14T20:05:34.707Z,69.43
2023-05-14T20:08:02.194Z,69.42
2023-05-14T20:10:30.774Z,68.55
2023-05-14T20:12:57.848Z,68.71
2023-05-14T20:15:24.616Z,68.62
2023-05-14T20:17:51.663Z,68.15
2023-05-14T20:20:18.952Z,67.83
2023-05-14T20:22:46.218Z,67.98
2023-05-14T20:25:13.841Z,67.56
2023-05-14T20:27:41.414Z,68.28
2023-05-14T20:30:08.767Z,68.27
2023-05-14T20:32:35.757Z,72.18
2023-05-14T20:35:03.862Z,86.65
2023-05-14T20:37:32.929Z,92.27
2023-05-14T20:40:00.160Z,92.91
2023-05-14T20:42:27.634Z,92.63
2023-05-14T20:44:54.634Z,92.62
2023-05-14T20:47:24.409Z,91.24
2023-05-14T20:49:51.523Z,91.08
2023-05-14T20:52:18.918Z,90.36
2023-05-14T20:54:46.383Z,89.23
2023-05-14T20:57:15.430Z,88.00
2023-05-14T20:59:43.063Z,86.65
2023-05-14T21:02:10.132Z,85.70
2023-05-14T21:04:37.485Z,84.34
2023-05-14T21:07:05.343Z,83.14
2023-05-14T21:09:32.193Z,82.91
2023-05-14T21:11:59.226Z,80.37
2023-05-14T21:14:26.139Z,80.69
2023-05-14T21:16:52.974Z,80.80
2023-05-14T21:19:20.129Z,79.43
2023-05-14T21:21:47.528Z,79.10
2023-05-14T21:24:16.892Z,78.93
2023-05-14T21:26:44.239Z,78.42
2023-05-14T21:29:11.524Z,78.28
2023-05-14T21:31:38.501Z,78.31
2023-05-14T21:34:05.418Z,78.28
2023-05-14T21:36:32.317Z,77.92
2023-05-14T21:38:59.240Z,77.78
2023-05-14T21:41:26.067Z,78.06
2023-05-14T21:43:53.070Z,78.09
2023-05-14T21:46:19.981Z,77.85
2023-05-14T21:48:47.126Z,76.77
2023-05-14T21:51:14.010Z,75.92
2023-05-14T21:53:41.074Z,75.80
2023-05-14T21:56:08.419Z,75.84
2023-05-14T21:58:36.086Z,75.99
2023-05-14T22:01:03.155Z,75.10
2023-05-14T22:03:30.087Z,75.82
2023-05-14T22:05:57.489Z,75.75
2023-05-14T22:08:24.402Z,76.25
2023-05-14T22:10:51.305Z,76.07
2023-05-14T22:13:18.110Z,76.26
2023-05-14T22:15:45.110Z,75.79
2023-05-14T22:18:13.113Z,75.96
2023-05-14T22:20:40.269Z,75.76
2023-05-14T22:23:07.335Z,75.78
2023-05-14T22:25:34.391Z,76.22
2023-05-14T22:28:01.266Z,75.62
2023-05-14T22:30:28.141Z,76.10
2023-05-14T22:32:55.093Z,76.50
2023-05-14T22:35:22.288Z,76.39
2023-05-14T22:37:49.293Z,76.30
2023-05-14T22:40:16.283Z,75.83
2023-05-14T22:42:43.309Z,75.35
2023-05-14T22:45:10.712Z,75.36
2023-05-14T22:47:38.671Z,75.43
2023-05-14T22:50:11.558Z,75.48
2023-05-14T22:52:40.203Z,74.61
2023-05-14T22:55:08.018Z,73.57
2023-05-14T22:57:35.065Z,73.63
2023-05-14T23:00:01.947Z,73.77
2023-05-14T23:02:29.313Z,74.17
2023-05-14T23:04:56.284Z,74.69
2023-05-14T23:07:23.108Z,74.97
2023-05-14T23:09:49.909Z,74.93
2023-05-14T23:12:16.963Z,75.20
2023-05-14T23:14:43.831Z,74.17
2023-05-14T23:17:10.686Z,74.25
2023-05-14T23:19:37.698Z,74.03
2023-05-14T23:22:05.015Z,73.78
2023-05-14T23:24:31.782Z,72.77
2023-05-14T23:26:58.663Z,73.99
2023-05-14T23:29:25.625Z,73.91
2023-05-14T23:31:52.532Z,73.26
2023-05-14T23:34:19.424Z,72.94
2023-05-14T23:36:46.207Z,73.43
2023-05-14T23:39:13.018Z,73.98
2023-05-14T23:41:39.866Z,74.37
2023-05-14T23:44:07.390Z,73.84
2023-05-14T23:46:34.673Z,73.10
2023-05-14T23:49:01.485Z,73.45
2023-05-14T23:51:28.542Z,73.62
2023-05-14T23:53:56.458Z,73.81
2023-05-14T23:56:24.716Z,73.54
2023-05-14T23:58:51.714Z,73.94
